sensor_id;sensor_type;location;lat;lon;timestamp;P1;durP1;ratioP1;P2;durP2;ratioP2
8663;SDS011;4369;47.842;13.096;2023-05-20T00:01:40;8.43;;;7.40;;
8663;SDS011;4369;47.842;13.096;2023-05-20T00:04:08;10.13;;;7.20;;
8663;SDS011;4369;47.842;13.096;2023-05-20T00:06:41;9.03;;;7.57;;
8663;SDS011;4369;47.842;13.096;2023-05-20T00:09:10;8.07;;;7.13;;
8663;SDS011;4369;47.842;13.096;2023-05-20T00:11:37;9.03;;;7.60;;
8663;SDS011;4369;47.842;13.096;2023-05-20T00:14:05;9.57;;;8.20;;
8663;SDS011;4369;47.842;13.096;2023-05-20T00:16:33;9.17;;;7.43;;
8663;SDS011;4369;47.842;13.096;2023-05-20T00:19:09;10.70;;;8.10;;
8663;SDS011;4369;47.842;13.096;2023-05-20T00:21:36;10.23;;;8.50;;
8663;SDS011;4369;47.842;13.096;2023-05-20T00:24:04;11.73;;;8.27;;
8663;SDS011;4369;47.842;13.096;2023-05-20T00:26:33;10.10;;;7.97;;
8663;SDS011;4369;47.842;13.096;2023-05-20T00:29:00;10.53;;;8.53;;
8663;SDS011;4369;47.842;13.096;2023-05-20T00:31:28;13.53;;;8.90;;
8663;SDS011;4369;47.842;13.096;2023-05-20T00:33:56;9.37;;;7.77;;
8663;SDS011;4369;47.842;13.096;2023-05-20T00:36:24;10.47;;;7.80;;
8663;SDS011;4369;47.842;13.096;2023-05-20T00:38:55;12.30;;;7.70;;
8663;SDS011;4369;47.842;13.096;2023-05-20T00:41:24;8.80;;;7.40;;
8663;SDS011;4369;47.842;13.096;2023-05-20T00:43:57;8.93;;;8.03;;
8663;SDS011;4369;47.842;13.096;2023-05-20T00:46:25;8.87;;;7.70;;
8663;SDS011;4369;47.842;13.096;2023-05-20T00:48:54;8.13;;;7.03;;
8663;SDS011;4369;47.842;13.096;2023-05-20T00:51:25;7.70;;;6.23;;
8663;SDS011;4369;47.842;13.096;2023-05-20T00:53:54;7.37;;;6.60;;
8663;SDS011;4369;47.842;13.096;2023-05-20T00:56:24;9.53;;;7.33;;
8663;SDS011;4369;47.842;13.096;2023-05-20T00:58:52;9.87;;;7.43;;
8663;SDS011;4369;47.842;13.096;2023-05-20T01:01:21;7.47;;;6.70;;
8663;SDS011;4369;47.842;13.096;2023-05-20T01:03:48;8.33;;;7.50;;
8663;SDS011;4369;47.842;13.096;2023-05-20T01:06:17;8.83;;;7.47;;
8663;SDS011;4369;47.842;13.096;2023-05-20T01:08:46;7.80;;;7.10;;
8663;SDS011;4369;47.842;13.096;2023-05-20T01:11:17;8.50;;;7.27;;
8663;SDS011;4369;47.842;13.096;2023-05-20T01:13:53;7.60;;;6.77;;
8663;SDS011;4369;47.842;13.096;2023-05-20T01:16:25;8.47;;;7.60;;
8663;SDS011;4369;47.842;13.096;2023-05-20T01:18:55;8.33;;;7.53;;
8663;SDS011;4369;47.842;13.096;2023-05-20T01:21:26;8.07;;;7.27;;
8663;SDS011;4369;47.842;13.096;2023-05-20T01:23:59;13.30;;;7.90;;
8663;SDS011;4369;47.842;13.096;2023-05-20T01:26:29;8.57;;;7.77;;
8663;SDS011;4369;47.842;13.096;2023-05-20T01:28:57;10.27;;;7.50;;
8663;SDS011;4369;47.842;13.096;2023-05-20T01:31:30;8.13;;;7.33;;
8663;SDS011;4369;47.842;13.096;2023-05-20T01:34:05;9.27;;;7.47;;
8663;SDS011;4369;47.842;13.096;2023-05-20T01:36:33;8.63;;;7.07;;
8663;SDS011;4369;47.842;13.096;2023-05-20T01:39:03;8.47;;;7.43;;
8663;SDS011;4369;47.842;13.096;2023-05-20T01:41:36;8.03;;;7.23;;
8663;SDS011;4369;47.842;13.096;2023-05-20T01:44:06;7.97;;;6.63;;
8663;SDS011;4369;47.842;13.096;2023-05-20T01:46:34;7.10;;;6.07;;
8663;SDS011;4369;47.842;13.096;2023-05-20T01:49:10;8.60;;;6.67;;
8663;SDS011;4369;47.842;13.096;2023-05-20T01:51:38;7.87;;;6.83;;
8663;SDS011;4369;47.842;13.096;2023-05-20T01:54:07;8.87;;;7.30;;
8663;SDS011;4369;47.842;13.096;2023-05-20T01:56:36;8.87;;;7.50;;
8663;SDS011;4369;47.842;13.096;2023-05-20T01:59:06;8.40;;;6.53;;
8663;SDS011;4369;47.842;13.096;2023-05-20T02:01:34;6.90;;;6.20;;
8663;SDS011;4369;47.842;13.096;2023-05-20T02:04:05;7.47;;;6.67;;
8663;SDS011;4369;47.842;13.096;2023-05-20T02:06:33;7.77;;;6.10;;
8663;SDS011;4369;47.842;13.096;2023-05-20T02:09:08;9.17;;;6.90;;
8663;SDS011;4369;47.842;13.096;2023-05-20T02:11:35;6.80;;;6.17;;
8663;SDS011;4369;47.842;13.096;2023-05-20T02:14:05;7.37;;;6.67;;
8663;SDS011;4369;47.842;13.096;2023-05-20T02:16:35;7.70;;;7.00;;
8663;SDS011;4369;47.842;13.096;2023-05-20T02:19:02;10.73;;;7.43;;
8663;SDS011;4369;47.842;13.096;2023-05-20T02:21:38;7.47;;;6.77;;
8663;SDS011;4369;47.842;13.096;2023-05-20T02:24:15;9.07;;;6.87;;
8663;SDS011;4369;47.842;13.096;2023-05-20T02:26:47;11.70;;;6.23;;
8663;SDS011;4369;47.842;13.096;2023-05-20T02:29:23;7.83;;;6.47;;
8663;SDS011;4369;47.842;13.096;2023-05-20T02:31:51;8.83;;;7.87;;
8663;SDS011;4369;47.842;13.096;2023-05-20T02:34:19;9.13;;;8.17;;
8663;SDS011;4369;47.842;13.096;2023-05-20T02:36:50;8.53;;;7.43;;
8663;SDS011;4369;47.842;13.096;2023-05-20T02:39:22;8.90;;;7.90;;
8663;SDS011;4369;47.842;13.096;2023-05-20T02:41:56;10.27;;;8.50;;
8663;SDS011;4369;47.842;13.096;2023-05-20T02:44:23;8.53;;;7.63;;
8663;SDS011;4369;47.842;13.096;2023-05-20T02:46:53;10.40;;;7.67;;
8663;SDS011;4369;47.842;13.096;2023-05-20T02:49:30;9.27;;;7.50;;
8663;SDS011;4369;47.842;13.096;2023-05-20T02:52:01;10.03;;;8.30;;
8663;SDS011;4369;47.842;13.096;2023-05-20T02:54:36;11.60;;;8.20;;
8663;SDS011;4369;47.842;13.096;2023-05-20T02:57:06;10.27;;;8.87;;
8663;SDS011;4369;47.842;13.096;2023-05-20T02:59:34;11.43;;;9.17;;
8663;SDS011;4369;47.842;13.096;2023-05-20T03:02:01;9.87;;;8.87;;
8663;SDS011;4369;47.842;13.096;2023-05-20T03:04:34;12.53;;;8.83;;
8663;SDS011;4369;47.842;13.096;2023-05-20T03:07:04;8.87;;;7.97;;
8663;SDS011;4369;47.842;13.096;2023-05-20T03:09:31;10.10;;;9.03;;
8663;SDS011;4369;47.842;13.096;2023-05-20T03:12:06;11.30;;;9.07;;
8663;SDS011;4369;47.842;13.096;2023-05-20T03:14:38;9.80;;;8.80;;
8663;SDS011;4369;47.842;13.096;2023-05-20T03:17:07;11.57;;;9.20;;
8663;SDS011;4369;47.842;13.096;2023-05-20T03:19:35;10.50;;;7.97;;
8663;SDS011;4369;47.842;13.096;2023-05-20T03:22:06;10.97;;;8.93;;
8663;SDS011;4369;47.842;13.096;2023-05-20T03:24:47;11.93;;;8.57;;
8663;SDS011;4369;47.842;13.096;2023-05-20T03:27:17;9.23;;;8.33;;
8663;SDS011;4369;47.842;13.096;2023-05-20T03:29:54;9.37;;;8.10;;
8663;SDS011;4369;47.842;13.096;2023-05-20T03:32:27;10.07;;;8.10;;
8663;SDS011;4369;47.842;13.096;2023-05-20T03:34:59;13.23;;;9.60;;
8663;SDS011;4369;47.842;13.096;2023-05-20T03:37:27;10.33;;;8.97;;
8663;SDS011;4369;47.842;13.096;2023-05-20T03:40:15;12.17;;;9.47;;
8663;SDS011;4369;47.842;13.096;2023-05-20T03:42:59;14.27;;;10.93;;
8663;SDS011;4369;47.842;13.096;2023-05-20T03:45:27;11.23;;;9.17;;
8663;SDS011;4369;47.842;13.096;2023-05-20T03:47:59;11.20;;;9.60;;
8663;SDS011;4369;47.842;13.096;2023-05-20T03:50:29;11.13;;;9.63;;
8663;SDS011;4369;47.842;13.096;2023-05-20T03:53:00;13.23;;;11.07;;
8663;SDS011;4369;47.842;13.096;2023-05-20T03:55:28;13.23;;;11.50;;
8663;SDS011;4369;47.842;13.096;2023-05-20T03:57:57;11.77;;;10.50;;
8663;SDS011;4369;47.842;13.096;2023-05-20T04:00:25;12.93;;;11.40;;
8663;SDS011;4369;47.842;13.096;2023-05-20T04:02:55;13.93;;;11.33;;
8663;SDS011;4369;47.842;13.096;2023-05-20T04:05:30;15.83;;;13.30;;
8663;SDS011;4369;47.842;13.096;2023-05-20T04:08:02;15.63;;;13.53;;
8663;SDS011;4369;47.842;13.096;2023-05-20T04:10:43;16.03;;;12.67;;
8663;SDS011;4369;47.842;13.096;2023-05-20T04:13:17;17.87;;;12.47;;
8663;SDS011;4369;47.842;13.096;2023-05-20T04:15:51;14.20;;;12.63;;
8663;SDS011;4369;47.842;13.096;2023-05-20T04:18:26;18.40;;;12.50;;
8663;SDS011;4369;47.842;13.096;2023-05-20T04:20:56;14.77;;;12.43;;
8663;SDS011;4369;47.842;13.096;2023-05-20T04:23:25;14.27;;;12.10;;
8663;SDS011;4369;47.842;13.096;2023-05-20T04:25:53;13.40;;;11.80;;
8663;SDS011;4369;47.842;13.096;2023-05-20T04:28:26;12.83;;;11.30;;
8663;SDS011;4369;47.842;13.096;2023-05-20T04:30:58;14.10;;;11.93;;
8663;SDS011;4369;47.842;13.096;2023-05-20T04:33:26;12.37;;;11.17;;
8663;SDS011;4369;47.842;13.096;2023-05-20T04:35:53;14.93;;;12.37;;
8663;SDS011;4369;47.842;13.096;2023-05-20T04:38:22;13.40;;;11.80;;
8663;SDS011;4369;47.842;13.096;2023-05-20T04:40:55;14.47;;;12.17;;
8663;SDS011;4369;47.842;13.096;2023-05-20T04:43:23;14.77;;;12.00;;
8663;SDS011;4369;47.842;13.096;2023-05-20T04:45:50;15.60;;;11.97;;
8663;SDS011;4369;47.842;13.096;2023-05-20T04:48:18;13.50;;;11.03;;
8663;SDS011;4369;47.842;13.096;2023-05-20T04:50:46;13.10;;;11.67;;
8663;SDS011;4369;47.842;13.096;2023-05-20T04:53:14;12.27;;;10.90;;
8663;SDS011;4369;47.842;13.096;2023-05-20T04:55:41;11.93;;;10.47;;
8663;SDS011;4369;47.842;13.096;2023-05-20T04:58:09;14.53;;;11.13;;
8663;SDS011;4369;47.842;13.096;2023-05-20T05:00:39;13.97;;;10.70;;
8663;SDS011;4369;47.842;13.096;2023-05-20T05:03:07;13.80;;;11.50;;
8663;SDS011;4369;47.842;13.096;2023-05-20T05:05:34;12.87;;;11.47;;
8663;SDS011;4369;47.842;13.096;2023-05-20T05:08:01;19.13;;;11.87;;
8663;SDS011;4369;47.842;13.096;2023-05-20T05:10:28;13.73;;;11.57;;
8663;SDS011;4369;47.842;13.096;2023-05-20T05:12:55;14.27;;;11.40;;
8663;SDS011;4369;47.842;13.096;2023-05-20T05:15:23;15.90;;;11.43;;
8663;SDS011;4369;47.842;13.096;2023-05-20T05:17:50;16.13;;;11.50;;
8663;SDS011;4369;47.842;13.096;2023-05-20T05:20:17;15.23;;;12.37;;
8663;SDS011;4369;47.842;13.096;2023-05-20T05:22:45;14.63;;;11.17;;
8663;SDS011;4369;47.842;13.096;2023-05-20T05:25:12;14.03;;;11.73;;
8663;SDS011;4369;47.842;13.096;2023-05-20T05:27:39;14.43;;;11.73;;
8663;SDS011;4369;47.842;13.096;2023-05-20T05:30:08;13.43;;;11.83;;
8663;SDS011;4369;47.842;13.096;2023-05-20T05:32:37;13.90;;;11.60;;
8663;SDS011;4369;47.842;13.096;2023-05-20T05:35:04;12.20;;;10.33;;
8663;SDS011;4369;47.842;13.096;2023-05-20T05:37:31;11.17;;;10.03;;
8663;SDS011;4369;47.842;13.096;2023-05-20T05:39:58;11.57;;;9.77;;
8663;SDS011;4369;47.842;13.096;2023-05-20T05:42:25;11.53;;;9.83;;
8663;SDS011;4369;47.842;13.096;2023-05-20T05:44:52;11.93;;;9.77;;
8663;SDS011;4369;47.842;13.096;2023-05-20T05:47:19;10.80;;;9.70;;
8663;SDS011;4369;47.842;13.096;2023-05-20T05:49:48;12.83;;;10.83;;
8663;SDS011;4369;47.842;13.096;2023-05-20T05:52:15;13.97;;;9.87;;
8663;SDS011;4369;47.842;13.096;2023-05-20T05:54:42;9.47;;;7.20;;
8663;SDS011;4369;47.842;13.096;2023-05-20T05:57:09;7.50;;;6.07;;
8663;SDS011;4369;47.842;13.096;2023-05-20T05:59:36;9.97;;;8.97;;
8663;SDS011;4369;47.842;13.096;2023-05-20T06:02:03;11.93;;;9.67;;
8663;SDS011;4369;47.842;13.096;2023-05-20T06:04:31;14.17;;;10.27;;
8663;SDS011;4369;47.842;13.096;2023-05-20T06:06:59;9.77;;;8.77;;
8663;SDS011;4369;47.842;13.096;2023-05-20T06:09:26;12.37;;;10.33;;
8663;SDS011;4369;47.842;13.096;2023-05-20T06:11:53;13.10;;;10.07;;
8663;SDS011;4369;47.842;13.096;2023-05-20T06:14:20;12.37;;;9.87;;
8663;SDS011;4369;47.842;13.096;2023-05-20T06:16:47;11.87;;;6.30;;
8663;SDS011;4369;47.842;13.096;2023-05-20T06:19:14;4.70;;;4.30;;
8663;SDS011;4369;47.842;13.096;2023-05-20T06:21:40;4.73;;;4.20;;
8663;SDS011;4369;47.842;13.096;2023-05-20T06:24:09;6.80;;;4.83;;
8663;SDS011;4369;47.842;13.096;2023-05-20T06:26:35;5.30;;;4.33;;
8663;SDS011;4369;47.842;13.096;2023-05-20T06:29:02;4.33;;;4.00;;
8663;SDS011;4369;47.842;13.096;2023-05-20T06:31:29;5.93;;;3.80;;
8663;SDS011;4369;47.842;13.096;2023-05-20T06:33:56;4.67;;;4.13;;
8663;SDS011;4369;47.842;13.096;2023-05-20T06:36:23;4.53;;;4.13;;
8663;SDS011;4369;47.842;13.096;2023-05-20T06:38:50;4.37;;;3.83;;
8663;SDS011;4369;47.842;13.096;2023-05-20T06:41:18;5.60;;;4.27;;
8663;SDS011;4369;47.842;13.096;2023-05-20T06:43:45;9.50;;;8.60;;
8663;SDS011;4369;47.842;13.096;2023-05-20T06:46:12;10.33;;;8.67;;
8663;SDS011;4369;47.842;13.096;2023-05-20T06:48:39;11.23;;;8.70;;
8663;SDS011;4369;47.842;13.096;2023-05-20T06:51:06;4.57;;;4.17;;
8663;SDS011;4369;47.842;13.096;2023-05-20T06:53:34;4.23;;;3.73;;
8663;SDS011;4369;47.842;13.096;2023-05-20T06:56:01;4.20;;;3.80;;
8663;SDS011;4369;47.842;13.096;2023-05-20T06:58:29;5.90;;;4.00;;
8663;SDS011;4369;47.842;13.096;2023-05-20T07:00:56;4.40;;;4.00;;
8663;SDS011;4369;47.842;13.096;2023-05-20T07:03:23;4.77;;;4.37;;
8663;SDS011;4369;47.842;13.096;2023-05-20T07:05:50;4.30;;;3.90;;
8663;SDS011;4369;47.842;13.096;2023-05-20T07:08:18;3.93;;;3.53;;
8663;SDS011;4369;47.842;13.096;2023-05-20T07:10:45;4.60;;;4.20;;
8663;SDS011;4369;47.842;13.096;2023-05-20T07:13:11;4.23;;;3.83;;
8663;SDS011;4369;47.842;13.096;2023-05-20T07:15:40;4.87;;;4.30;;
8663;SDS011;4369;47.842;13.096;2023-05-20T07:18:07;4.37;;;4.03;;
8663;SDS011;4369;47.842;13.096;2023-05-20T07:20:33;4.57;;;4.17;;
8663;SDS011;4369;47.842;13.096;2023-05-20T07:23:00;4.80;;;4.40;;
8663;SDS011;4369;47.842;13.096;2023-05-20T07:25:28;4.30;;;4.00;;
8663;SDS011;4369;47.842;13.096;2023-05-20T07:27:55;4.60;;;4.20;;
8663;SDS011;4369;47.842;13.096;2023-05-20T07:30:22;5.20;;;4.00;;
8663;SDS011;4369;47.842;13.096;2023-05-20T07:32:50;4.07;;;3.70;;
8663;SDS011;4369;47.842;13.096;2023-05-20T07:35:17;4.20;;;3.90;;
8663;SDS011;4369;47.842;13.096;2023-05-20T07:37:44;4.73;;;4.33;;
8663;SDS011;4369;47.842;13.096;2023-05-20T07:40:11;4.60;;;4.20;;
8663;SDS011;4369;47.842;13.096;2023-05-20T07:42:38;4.77;;;4.37;;
8663;SDS011;4369;47.842;13.096;2023-05-20T07:45:05;4.60;;;4.30;;
8663;SDS011;4369;47.842;13.096;2023-05-20T07:47:33;4.40;;;4.00;;
8663;SDS011;4369;47.842;13.096;2023-05-20T07:50:02;4.73;;;4.33;;
8663;SDS011;4369;47.842;13.096;2023-05-20T07:52:28;5.57;;;4.20;;
8663;SDS011;4369;47.842;13.096;2023-05-20T07:54:55;4.83;;;4.43;;
8663;SDS011;4369;47.842;13.096;2023-05-20T07:57:22;4.93;;;4.40;;
8663;SDS011;4369;47.842;13.096;2023-05-20T07:59:49;5.00;;;4.43;;
8663;SDS011;4369;47.842;13.096;2023-05-20T08:02:16;5.47;;;5.03;;
8663;SDS011;4369;47.842;13.096;2023-05-20T08:04:44;5.53;;;5.00;;
8663;SDS011;4369;47.842;13.096;2023-05-20T08:07:12;5.50;;;5.10;;
8663;SDS011;4369;47.842;13.096;2023-05-20T08:09:40;5.83;;;5.23;;
8663;SDS011;4369;47.842;13.096;2023-05-20T08:12:07;5.43;;;4.93;;
8663;SDS011;4369;47.842;13.096;2023-05-20T08:14:34;6.53;;;5.00;;
8663;SDS011;4369;47.842;13.096;2023-05-20T08:17:01;5.87;;;5.37;;
8663;SDS011;4369;47.842;13.096;2023-05-20T08:19:28;6.30;;;5.70;;
8663;SDS011;4369;47.842;13.096;2023-05-20T08:21:55;6.37;;;5.77;;
8663;SDS011;4369;47.842;13.096;2023-05-20T08:24:23;6.77;;;5.93;;
8663;SDS011;4369;47.842;13.096;2023-05-20T08:26:50;6.40;;;5.80;;
8663;SDS011;4369;47.842;13.096;2023-05-20T08:29:17;7.17;;;6.00;;
8663;SDS011;4369;47.842;13.096;2023-05-20T08:31:44;7.23;;;6.40;;
8663;SDS011;4369;47.842;13.096;2023-05-20T08:34:11;6.80;;;6.10;;
8663;SDS011;4369;47.842;13.096;2023-05-20T08:36:38;7.37;;;6.50;;
8663;SDS011;4369;47.842;13.096;2023-05-20T08:39:05;9.63;;;7.40;;
8663;SDS011;4369;47.842;13.096;2023-05-20T08:41:33;8.03;;;7.23;;
8663;SDS011;4369;47.842;13.096;2023-05-20T08:44:00;7.37;;;6.67;;
8663;SDS011;4369;47.842;13.096;2023-05-20T08:46:27;7.67;;;6.97;;
8663;SDS011;4369;47.842;13.096;2023-05-20T08:48:55;7.93;;;6.80;;
8663;SDS011;4369;47.842;13.096;2023-05-20T08:51:23;8.67;;;6.50;;
8663;SDS011;4369;47.842;13.096;2023-05-20T08:53:52;7.03;;;6.00;;
8663;SDS011;4369;47.842;13.096;2023-05-20T08:56:19;9.40;;;7.33;;
8663;SDS011;4369;47.842;13.096;2023-05-20T08:58:48;7.23;;;6.57;;
8663;SDS011;4369;47.842;13.096;2023-05-20T09:01:16;7.20;;;6.50;;
8663;SDS011;4369;47.842;13.096;2023-05-20T09:03:42;8.33;;;7.53;;
8663;SDS011;4369;47.842;13.096;2023-05-20T09:06:09;8.67;;;7.37;;
8663;SDS011;4369;47.842;13.096;2023-05-20T09:08:41;9.70;;;7.37;;
8663;SDS011;4369;47.842;13.096;2023-05-20T09:11:08;8.60;;;6.90;;
8663;SDS011;4369;47.842;13.096;2023-05-20T09:13:36;8.27;;;6.80;;
8663;SDS011;4369;47.842;13.096;2023-05-20T09:16:04;8.07;;;7.27;;
8663;SDS011;4369;47.842;13.096;2023-05-20T09:18:31;8.77;;;7.87;;
8663;SDS011;4369;47.842;13.096;2023-05-20T09:21:03;9.30;;;7.60;;
8663;SDS011;4369;47.842;13.096;2023-05-20T09:23:30;10.87;;;7.97;;
8663;SDS011;4369;47.842;13.096;2023-05-20T09:25:59;7.97;;;7.27;;
8663;SDS011;4369;47.842;13.096;2023-05-20T09:28:26;8.70;;;7.83;;
8663;SDS011;4369;47.842;13.096;2023-05-20T09:30:55;8.20;;;7.37;;
8663;SDS011;4369;47.842;13.096;2023-05-20T09:33:27;9.80;;;7.60;;
8663;SDS011;4369;47.842;13.096;2023-05-20T09:36:00;9.97;;;7.73;;
8663;SDS011;4369;47.842;13.096;2023-05-20T09:38:29;8.80;;;7.87;;
8663;SDS011;4369;47.842;13.096;2023-05-20T09:41:02;9.33;;;8.10;;
8663;SDS011;4369;47.842;13.096;2023-05-20T09:43:33;8.40;;;7.60;;
8663;SDS011;4369;47.842;13.096;2023-05-20T09:46:00;8.73;;;7.30;;
8663;SDS011;4369;47.842;13.096;2023-05-20T09:48:30;7.30;;;6.30;;
8663;SDS011;4369;47.842;13.096;2023-05-20T09:51:00;8.33;;;6.37;;
8663;SDS011;4369;47.842;13.096;2023-05-20T09:53:29;8.20;;;6.90;;
8663;SDS011;4369;47.842;13.096;2023-05-20T09:55:56;7.40;;;6.23;;
8663;SDS011;4369;47.842;13.096;2023-05-20T09:58:23;8.20;;;6.83;;
8663;SDS011;4369;47.842;13.096;2023-05-20T10:00:50;8.40;;;7.03;;
8663;SDS011;4369;47.842;13.096;2023-05-20T10:03:18;7.13;;;6.37;;
8663;SDS011;4369;47.842;13.096;2023-05-20T10:05:51;7.87;;;6.97;;
8663;SDS011;4369;47.842;13.096;2023-05-20T10:08:39;8.90;;;6.53;;
8663;SDS011;4369;47.842;13.096;2023-05-20T10:11:18;8.10;;;7.27;;
8663;SDS011;4369;47.842;13.096;2023-05-20T10:13:58;8.80;;;7.33;;
8663;SDS011;4369;47.842;13.096;2023-05-20T10:16:43;7.20;;;6.50;;
8663;SDS011;4369;47.842;13.096;2023-05-20T10:19:16;7.57;;;6.77;;
8663;SDS011;4369;47.842;13.096;2023-05-20T10:21:57;7.50;;;6.80;;
8663;SDS011;4369;47.842;13.096;2023-05-20T10:24:29;7.80;;;7.10;;
8663;SDS011;4369;47.842;13.096;2023-05-20T10:26:57;7.40;;;6.70;;
8663;SDS011;4369;47.842;13.096;2023-05-20T10:29:25;7.45;;;6.85;;
8663;SDS011;4369;47.842;13.096;2023-05-20T10:31:52;8.30;;;7.50;;
8663;SDS011;4369;47.842;13.096;2023-05-20T10:34:19;8.17;;;7.40;;
8663;SDS011;4369;47.842;13.096;2023-05-20T10:36:56;9.13;;;7.03;;
8663;SDS011;4369;47.842;13.096;2023-05-20T10:39:25;8.57;;;7.67;;
8663;SDS011;4369;47.842;13.096;2023-05-20T10:42:03;8.65;;;6.85;;
8663;SDS011;4369;47.842;13.096;2023-05-20T10:44:39;7.97;;;7.18;;
8663;SDS011;4369;47.842;13.096;2023-05-20T10:47:07;8.38;;;7.45;;
8663;SDS011;4369;47.842;13.096;2023-05-20T10:49:35;7.03;;;6.32;;
8663;SDS011;4369;47.842;13.096;2023-05-20T10:52:07;7.65;;;6.95;;
8663;SDS011;4369;47.842;13.096;2023-05-20T10:54:35;9.13;;;6.90;;
8663;SDS011;4369;47.842;13.096;2023-05-20T10:57:07;7.53;;;6.75;;
8663;SDS011;4369;47.842;13.096;2023-05-20T10:59:35;9.52;;;7.40;;
8663;SDS011;4369;47.842;13.096;2023-05-20T11:02:02;8.70;;;7.68;;
8663;SDS011;4369;47.842;13.096;2023-05-20T11:04:29;8.30;;;7.10;;
8663;SDS011;4369;47.842;13.096;2023-05-20T11:06:58;7.07;;;6.47;;
8663;SDS011;4369;47.842;13.096;2023-05-20T11:09:26;12.70;;;7.20;;
8663;SDS011;4369;47.842;13.096;2023-05-20T11:11:55;8.13;;;6.90;;
8663;SDS011;4369;47.842;13.096;2023-05-20T11:14:22;7.53;;;6.82;;
8663;SDS011;4369;47.842;13.096;2023-05-20T11:16:52;8.55;;;6.72;;
8663;SDS011;4369;47.842;13.096;2023-05-20T11:19:21;9.18;;;6.13;;
8663;SDS011;4369;47.842;13.096;2023-05-20T11:21:48;7.65;;;6.82;;
8663;SDS011;4369;47.842;13.096;2023-05-20T11:24:22;9.43;;;7.00;;
8663;SDS011;4369;47.842;13.096;2023-05-20T11:26:52;7.50;;;6.75;;
8663;SDS011;4369;47.842;13.096;2023-05-20T11:29:20;7.68;;;6.90;;
8663;SDS011;4369;47.842;13.096;2023-05-20T11:31:47;9.55;;;6.40;;
8663;SDS011;4369;47.842;13.096;2023-05-20T11:34:16;6.75;;;6.00;;
8663;SDS011;4369;47.842;13.096;2023-05-20T11:36:45;7.13;;;6.07;;
8663;SDS011;4369;47.842;13.096;2023-05-20T11:39:14;8.20;;;6.78;;
8663;SDS011;4369;47.842;13.096;2023-05-20T11:41:41;8.07;;;7.03;;
8663;SDS011;4369;47.842;13.096;2023-05-20T11:44:10;7.88;;;5.97;;
8663;SDS011;4369;47.842;13.096;2023-05-20T11:46:40;7.57;;;6.88;;
8663;SDS011;4369;47.842;13.096;2023-05-20T11:49:07;7.00;;;6.07;;
8663;SDS011;4369;47.842;13.096;2023-05-20T11:51:36;9.23;;;6.40;;
8663;SDS011;4369;47.842;13.096;2023-05-20T11:54:04;6.72;;;5.93;;
8663;SDS011;4369;47.842;13.096;2023-05-20T11:56:32;9.63;;;6.10;;
8663;SDS011;4369;47.842;13.096;2023-05-20T11:59:00;7.07;;;6.38;;
8663;SDS011;4369;47.842;13.096;2023-05-20T12:01:30;9.10;;;6.90;;
8663;SDS011;4369;47.842;13.096;2023-05-20T12:04:01;7.57;;;6.88;;
8663;SDS011;4369;47.842;13.096;2023-05-20T12:06:29;7.47;;;6.78;;
8663;SDS011;4369;47.842;13.096;2023-05-20T12:08:57;6.67;;;6.07;;
8663;SDS011;4369;47.842;13.096;2023-05-20T12:11:27;7.13;;;6.47;;
8663;SDS011;4369;47.842;13.096;2023-05-20T12:13:54;6.95;;;6.15;;
8663;SDS011;4369;47.842;13.096;2023-05-20T12:16:20;6.78;;;6.18;;
8663;SDS011;4369;47.842;13.096;2023-05-20T12:18:49;7.68;;;6.90;;
8663;SDS011;4369;47.842;13.096;2023-05-20T12:21:16;6.82;;;6.18;;
8663;SDS011;4369;47.842;13.096;2023-05-20T12:23:42;7.25;;;6.55;;
8663;SDS011;4369;47.842;13.096;2023-05-20T12:26:09;6.93;;;6.22;;
8663;SDS011;4369;47.842;13.096;2023-05-20T12:28:36;7.05;;;5.93;;
8663;SDS011;4369;47.842;13.096;2023-05-20T12:31:04;7.10;;;6.40;;
8663;SDS011;4369;47.842;13.096;2023-05-20T12:33:31;6.63;;;6.00;;
8663;SDS011;4369;47.842;13.096;2023-05-20T12:35:59;6.57;;;5.97;;
8663;SDS011;4369;47.842;13.096;2023-05-20T12:38:26;7.20;;;6.47;;
8663;SDS011;4369;47.842;13.096;2023-05-20T12:40:53;6.57;;;5.97;;
8663;SDS011;4369;47.842;13.096;2023-05-20T12:43:20;6.45;;;5.85;;
8663;SDS011;4369;47.842;13.096;2023-05-20T12:45:47;6.65;;;6.05;;
8663;SDS011;4369;47.842;13.096;2023-05-20T12:48:14;7.28;;;6.25;;
8663;SDS011;4369;47.842;13.096;2023-05-20T12:50:41;6.45;;;5.88;;
8663;SDS011;4369;47.842;13.096;2023-05-20T12:53:09;7.38;;;6.28;;
8663;SDS011;4369;47.842;13.096;2023-05-20T12:55:36;7.72;;;6.00;;
8663;SDS011;4369;47.842;13.096;2023-05-20T12:58:04;6.53;;;5.93;;
8663;SDS011;4369;47.842;13.096;2023-05-20T13:00:32;6.70;;;6.10;;
8663;SDS011;4369;47.842;13.096;2023-05-20T13:02:59;8.50;;;6.60;;
8663;SDS011;4369;47.842;13.096;2023-05-20T13:05:26;7.15;;;6.30;;
8663;SDS011;4369;47.842;13.096;2023-05-20T13:07:54;6.70;;;6.03;;
8663;SDS011;4369;47.842;13.096;2023-05-20T13:10:22;6.35;;;5.75;;
8663;SDS011;4369;47.842;13.096;2023-05-20T13:12:49;7.03;;;6.32;;
8663;SDS011;4369;47.842;13.096;2023-05-20T13:15:16;6.43;;;5.88;;
8663;SDS011;4369;47.842;13.096;2023-05-20T13:17:42;6.88;;;6.05;;
8663;SDS011;4369;47.842;13.096;2023-05-20T13:20:10;6.80;;;6.20;;
8663;SDS011;4369;47.842;13.096;2023-05-20T13:22:37;6.85;;;6.25;;
8663;SDS011;4369;47.842;13.096;2023-05-20T13:25:04;6.75;;;6.15;;
8663;SDS011;4369;47.842;13.096;2023-05-20T13:27:33;6.70;;;6.15;;
8663;SDS011;4369;47.842;13.096;2023-05-20T13:30:00;6.80;;;6.20;;
8663;SDS011;4369;47.842;13.096;2023-05-20T13:32:28;7.45;;;6.47;;
8663;SDS011;4369;47.842;13.096;2023-05-20T13:34:54;8.77;;;6.47;;
8663;SDS011;4369;47.842;13.096;2023-05-20T13:37:23;7.18;;;6.50;;
8663;SDS011;4369;47.842;13.096;2023-05-20T13:39:50;7.15;;;6.43;;
8663;SDS011;4369;47.842;13.096;2023-05-20T13:42:17;8.10;;;6.25;;
8663;SDS011;4369;47.842;13.096;2023-05-20T13:44:45;7.07;;;5.60;;
8663;SDS011;4369;47.842;13.096;2023-05-20T13:47:12;5.80;;;5.40;;
8663;SDS011;4369;47.842;13.096;2023-05-20T13:49:39;40.95;;;9.75;;
8663;SDS011;4369;47.842;13.096;2023-05-20T13:52:06;8.63;;;6.15;;
8663;SDS011;4369;47.842;13.096;2023-05-20T13:54:32;8.80;;;5.88;;
8663;SDS011;4369;47.842;13.096;2023-05-20T13:56:59;5.95;;;5.45;;
8663;SDS011;4369;47.842;13.096;2023-05-20T13:59:27;6.72;;;6.10;;
8663;SDS011;4369;47.842;13.096;2023-05-20T14:01:55;6.50;;;6.00;;
8663;SDS011;4369;47.842;13.096;2023-05-20T14:04:23;5.93;;;5.43;;
8663;SDS011;4369;47.842;13.096;2023-05-20T14:06:50;6.38;;;5.78;;
8663;SDS011;4369;47.842;13.096;2023-05-20T14:09:17;6.43;;;5.82;;
8663;SDS011;4369;47.842;13.096;2023-05-20T14:11:44;11.45;;;5.95;;
8663;SDS011;4369;47.842;13.096;2023-05-20T14:14:11;6.18;;;5.63;;
8663;SDS011;4369;47.842;13.096;2023-05-20T14:16:38;6.45;;;5.85;;
8663;SDS011;4369;47.842;13.096;2023-05-20T14:19:06;6.70;;;6.18;;
8663;SDS011;4369;47.842;13.096;2023-05-20T14:21:33;6.85;;;5.93;;
8663;SDS011;4369;47.842;13.096;2023-05-20T14:24:00;6.95;;;5.90;;
8663;SDS011;4369;47.842;13.096;2023-05-20T14:26:26;6.97;;;6.38;;
8663;SDS011;4369;47.842;13.096;2023-05-20T14:28:53;6.65;;;5.82;;
8663;SDS011;4369;47.842;13.096;2023-05-20T14:31:20;6.07;;;5.55;;
8663;SDS011;4369;47.842;13.096;2023-05-20T14:33:47;7.10;;;6.30;;
8663;SDS011;4369;47.842;13.096;2023-05-20T14:36:16;6.45;;;5.85;;
8663;SDS011;4369;47.842;13.096;2023-05-20T14:38:42;7.13;;;5.82;;
8663;SDS011;4369;47.842;13.096;2023-05-20T14:41:09;7.25;;;6.22;;
8663;SDS011;4369;47.842;13.096;2023-05-20T14:43:36;7.00;;;6.30;;
8663;SDS011;4369;47.842;13.096;2023-05-20T14:46:03;7.47;;;6.60;;
8663;SDS011;4369;47.842;13.096;2023-05-20T14:48:30;7.50;;;6.80;;
8663;SDS011;4369;47.842;13.096;2023-05-20T14:50:57;7.18;;;6.47;;
8663;SDS011;4369;47.842;13.096;2023-05-20T14:53:25;7.10;;;6.40;;
8663;SDS011;4369;47.842;13.096;2023-05-20T14:55:52;7.28;;;6.55;;
8663;SDS011;4369;47.842;13.096;2023-05-20T14:58:19;9.23;;;6.50;;
8663;SDS011;4369;47.842;13.096;2023-05-20T15:00:46;6.35;;;5.75;;
8663;SDS011;4369;47.842;13.096;2023-05-20T15:03:13;6.35;;;5.75;;
8663;SDS011;4369;47.842;13.096;2023-05-20T15:05:39;6.68;;;5.97;;